sensor_id;sensor_type;location;lat;lon;timestamp;pressure;altitude;pressure_sealevel;temperature;humidity
61676;BME280;47574;52.090;5.244;2023-08-31T00:00:10;100771.0;;;17.81;58.83
61676;BME280;47574;52.090;5.244;2023-08-31T00:01:47;100767.0;;;17.78;59.12
61676;BME280;47574;52.090;5.244;2023-08-31T00:03:24;100772.0;;;17.53;60.06
61676;BME280;47574;52.090;5.244;2023-08-31T00:06:36;100778.0;;;17.66;59.68
61676;BME280;47574;52.090;5.244;2023-08-31T00:08:12;100776.0;;;17.63;59.74
61676;BME280;47574;52.090;5.244;2023-08-31T00:09:48;100776.0;;;17.66;59.92
61676;BME280;47574;52.090;5.244;2023-08-31T00:13:00;100773.0;;;17.78;59.62
61676;BME280;47574;52.090;5.244;2023-08-31T00:14:36;100768.0;;;17.75;59.69
61676;BME280;47574;52.090;5.244;2023-08-31T00:16:12;100769.0;;;17.72;59.84
61676;BME280;47574;52.090;5.244;2023-08-31T00:19:26;100764.0;;;17.52;60.48
61676;BME280;47574;52.090;5.244;2023-08-31T00:21:02;100755.0;;;17.66;60.11
61676;BME280;47574;52.090;5.244;2023-08-31T00:22:38;100756.0;;;17.54;60.5
61676;BME280;47574;52.090;5.244;2023-08-31T00:24:14;100756.0;;;17.43;61.15
61676;BME280;47574;52.090;5.244;2023-08-31T00:27:27;100753.0;;;17.75;60.24
61676;BME280;47574;52.090;5.244;2023-08-31T00:29:03;100760.0;;;17.52;60.8
61676;BME280;47574;52.090;5.244;2023-08-31T00:30:39;100751.0;;;17.5;61.17
61676;BME280;47574;52.090;5.244;2023-08-31T00:33:52;100750.0;;;17.36;61.86
61676;BME280;47574;52.090;5.244;2023-08-31T00:35:28;100755.0;;;17.45;61.62
61676;BME280;47574;52.090;5.244;2023-08-31T00:37:04;100756.0;;;17.39;61.82
61676;BME280;47574;52.090;5.244;2023-08-31T00:40:17;100756.0;;;17.61;61.37
61676;BME280;47574;52.090;5.244;2023-08-31T00:41:53;100764.0;;;17.59;61.65
61676;BME280;47574;52.090;5.244;2023-08-31T00:43:30;100759.0;;;17.53;61.63
61676;BME280;47574;52.090;5.244;2023-08-31T00:45:08;100755.0;;;17.57;61.56
61676;BME280;47574;52.090;5.244;2023-08-31T00:48:21;100751.0;;;17.7;61.38
61676;BME280;47574;52.090;5.244;2023-08-31T00:49:57;100752.0;;;17.68;61.39
61676;BME280;47574;52.090;5.244;2023-08-31T00:51:33;100748.0;;;17.59;61.89
61676;BME280;47574;52.090;5.244;2023-08-31T00:54:46;100749.0;;;17.77;61.4
61676;BME280;47574;52.090;5.244;2023-08-31T00:56:24;100753.0;;;17.75;61.54
61676;BME280;47574;52.090;5.244;2023-08-31T00:58:00;100756.0;;;17.72;61.54
61676;BME280;47574;52.090;5.244;2023-08-31T01:01:25;100766.0;;;17.77;61.55
61676;BME280;47574;52.090;5.244;2023-08-31T01:03:06;100759.0;;;17.86;61.48
61676;BME280;47574;52.090;5.244;2023-08-31T01:04:58;100759.0;;;17.82;61.78
61676;BME280;47574;52.090;5.244;2023-08-31T01:08:38;100763.0;;;17.59;62.82
61676;BME280;47574;52.090;5.244;2023-08-31T01:10:24;100765.0;;;18.04;61.93
61676;BME280;47574;52.090;5.244;2023-08-31T01:13:51;100764.0;;;17.78;62.61
61676;BME280;47574;52.090;5.244;2023-08-31T01:15:39;100763.0;;;17.78;62.7
61676;BME280;47574;52.090;5.244;2023-08-31T01:17:17;100759.0;;;17.61;63.33
61676;BME280;47574;52.090;5.244;2023-08-31T01:18:56;100755.0;;;17.75;63.07
61676;BME280;47574;52.090;5.244;2023-08-31T01:22:24;100749.0;;;17.75;62.96
61676;BME280;47574;52.090;5.244;2023-08-31T01:24:07;100748.0;;;17.77;62.86
61676;BME280;47574;52.090;5.244;2023-08-31T01:25:46;100745.0;;;17.66;63.28
61676;BME280;47574;52.090;5.244;2023-08-31T01:27:23;100745.0;;;17.84;62.82
61676;BME280;47574;52.090;5.244;2023-08-31T01:30:36;100748.0;;;17.95;62.37
61676;BME280;47574;52.090;5.244;2023-08-31T01:32:12;100750.0;;;17.75;62.96
61676;BME280;47574;52.090;5.244;2023-08-31T01:33:48;100750.0;;;17.88;62.72
61676;BME280;47574;52.090;5.244;2023-08-31T01:35:25;100751.0;;;17.68;63.37
61676;BME280;47574;52.090;5.244;2023-08-31T01:39:04;100756.0;;;17.52;64.14
61676;BME280;47574;52.090;5.244;2023-08-31T01:40:44;100752.0;;;17.66;63.8
61676;BME280;47574;52.090;5.244;2023-08-31T01:42:26;100756.0;;;17.68;63.56
61676;BME280;47574;52.090;5.244;2023-08-31T01:44:05;100759.0;;;17.48;64.22
61676;BME280;47574;52.090;5.244;2023-08-31T01:47:22;100755.0;;;17.59;63.89
61676;BME280;47574;52.090;5.244;2023-08-31T01:48:59;100753.0;;;17.5;64.11
61676;BME280;47574;52.090;5.244;2023-08-31T01:50:35;100751.0;;;17.7;63.49
61676;BME280;47574;52.090;5.244;2023-08-31T01:52:11;100748.0;;;17.82;63.02
61676;BME280;47574;52.090;5.244;2023-08-31T01:55:24;100745.0;;;17.52;63.93
61676;BME280;47574;52.090;5.244;2023-08-31T01:57:00;100743.0;;;17.54;63.95
61676;BME280;47574;52.090;5.244;2023-08-31T01:58:36;100745.0;;;17.61;63.7
61676;BME280;47574;52.090;5.244;2023-08-31T02:01:52;100751.0;;;17.39;64.16
61676;BME280;47574;52.090;5.244;2023-08-31T02:03:28;100750.0;;;17.77;63.31
61676;BME280;47574;52.090;5.244;2023-08-31T02:05:05;100750.0;;;17.73;63.46
61676;BME280;47574;52.090;5.244;2023-08-31T02:09:53;100747.0;;;17.75;63.14
61676;BME280;47574;52.090;5.244;2023-08-31T02:11:29;100748.0;;;17.43;64.03
61676;BME280;47574;52.090;5.244;2023-08-31T02:13:06;100752.0;;;17.68;63.4
61676;BME280;47574;52.090;5.244;2023-08-31T02:16:18;100755.0;;;17.88;62.78
61676;BME280;47574;52.090;5.244;2023-08-31T02:17:54;100765.0;;;17.48;63.56
61676;BME280;47574;52.090;5.244;2023-08-31T02:19:30;100764.0;;;17.57;63.22
61676;BME280;47574;52.090;5.244;2023-08-31T02:22:42;100773.0;;;17.53;63.07
61676;BME280;47574;52.090;5.244;2023-08-31T02:24:18;100772.0;;;17.61;62.92
61676;BME280;47574;52.090;5.244;2023-08-31T02:25:55;100776.0;;;17.68;62.67
61676;BME280;47574;52.090;5.244;2023-08-31T02:29:08;100773.0;;;17.45;62.54
61676;BME280;47574;52.090;5.244;2023-08-31T02:30:46;100771.0;;;17.56;62.09
61676;BME280;47574;52.090;5.244;2023-08-31T02:32:22;100768.0;;;17.78;61.38
61676;BME280;47574;52.090;5.244;2023-08-31T02:33:58;100769.0;;;17.7;61.02
61676;BME280;47574;52.090;5.244;2023-08-31T02:37:10;100766.0;;;17.61;60.81
61676;BME280;47574;52.090;5.244;2023-08-31T02:38:47;100767.0;;;17.86;60.08
61676;BME280;47574;52.090;5.244;2023-08-31T02:40:22;100768.0;;;17.88;59.74
61676;BME280;47574;52.090;5.244;2023-08-31T02:43:35;100772.0;;;18.11;59.37
61676;BME280;47574;52.090;5.244;2023-08-31T02:45:11;100766.0;;;18.02;59.26
61676;BME280;47574;52.090;5.244;2023-08-31T02:46:47;100764.0;;;18.22;58.79
61676;BME280;47574;52.090;5.244;2023-08-31T02:49:59;100766.0;;;18.13;59.16
61676;BME280;47574;52.090;5.244;2023-08-31T02:51:35;100765.0;;;18.03;59.32
61676;BME280;47574;52.090;5.244;2023-08-31T02:53:11;100759.0;;;17.87;59.6
61676;BME280;47574;52.090;5.244;2023-08-31T02:56:24;100758.0;;;18.0;59.34
61676;BME280;47574;52.090;5.244;2023-08-31T02:58:00;100762.0;;;17.93;59.7
61676;BME280;47574;52.090;5.244;2023-08-31T02:59:37;100759.0;;;18.0;59.55
61676;BME280;47574;52.090;5.244;2023-08-31T03:01:14;100763.0;;;17.75;60.09
61676;BME280;47574;52.090;5.244;2023-08-31T03:04:25;100762.0;;;17.61;60.51
61676;BME280;47574;52.090;5.244;2023-08-31T03:06:02;100760.0;;;17.62;60.63
61676;BME280;47574;52.090;5.244;2023-08-31T03:07:38;100765.0;;;17.52;61.05
61676;BME280;47574;52.090;5.244;2023-08-31T03:10:50;100758.0;;;17.61;60.97
61676;BME280;47574;52.090;5.244;2023-08-31T03:12:26;100756.0;;;17.7;60.78
61676;BME280;47574;52.090;5.244;2023-08-31T03:14:02;100751.0;;;17.52;61.3
61676;BME280;47574;52.090;5.244;2023-08-31T03:17:14;100752.0;;;17.72;60.75
61676;BME280;47574;52.090;5.244;2023-08-31T03:18:50;100755.0;;;17.7;60.76
61676;BME280;47574;52.090;5.244;2023-08-31T03:20:27;100752.0;;;17.87;60.24
61676;BME280;47574;52.090;5.244;2023-08-31T03:22:03;100756.0;;;17.91;60.04
61676;BME280;47574;52.090;5.244;2023-08-31T03:25:15;100762.0;;;17.93;59.77
61676;BME280;47574;52.090;5.244;2023-08-31T03:26:51;100759.0;;;17.84;59.87
61676;BME280;47574;52.090;5.244;2023-08-31T03:28:27;100761.0;;;17.95;59.59
61676;BME280;47574;52.090;5.244;2023-08-31T03:31:40;100768.0;;;18.02;59.38
61676;BME280;47574;52.090;5.244;2023-08-31T03:33:16;100769.0;;;18.04;59.27
61676;BME280;47574;52.090;5.244;2023-08-31T03:34:53;100770.0;;;18.2;58.87
61676;BME280;47574;52.090;5.244;2023-08-31T03:38:05;100766.0;;;18.18;59.16
61676;BME280;47574;52.090;5.244;2023-08-31T03:39:41;100768.0;;;18.41;58.59
61676;BME280;47574;52.090;5.244;2023-08-31T03:41:17;100770.0;;;18.59;58.18
61676;BME280;47574;52.090;5.244;2023-08-31T03:44:29;100771.0;;;18.21;58.98
61676;BME280;47574;52.090;5.244;2023-08-31T03:46:06;100773.0;;;18.31;58.94
61676;BME280;47574;52.090;5.244;2023-08-31T03:47:41;100772.0;;;18.38;58.84
61676;BME280;47574;52.090;5.244;2023-08-31T03:49:18;100769.0;;;18.28;59.07
61676;BME280;47574;52.090;5.244;2023-08-31T03:52:31;100775.0;;;18.3;59.27
61676;BME280;47574;52.090;5.244;2023-08-31T03:54:07;100773.0;;;18.36;59.23
61676;BME280;47574;52.090;5.244;2023-08-31T03:55:43;100774.0;;;18.53;59.08
61676;BME280;47574;52.090;5.244;2023-08-31T03:58:55;100778.0;;;18.52;59.37
61676;BME280;47574;52.090;5.244;2023-08-31T04:00:31;100780.0;;;18.68;59.14
61676;BME280;47574;52.090;5.244;2023-08-31T04:02:07;100788.0;;;18.77;59.24
61676;BME280;47574;52.090;5.244;2023-08-31T04:05:20;100795.0;;;18.88;59.19
61676;BME280;47574;52.090;5.244;2023-08-31T04:06:56;100805.0;;;18.78;59.8
61676;BME280;47574;52.090;5.244;2023-08-31T04:08:32;100805.0;;;18.72;60.35
61676;BME280;47574;52.090;5.244;2023-08-31T04:10:08;100814.0;;;18.73;60.57
61676;BME280;47574;52.090;5.244;2023-08-31T04:13:22;100807.0;;;18.68;60.35
61676;BME280;47574;52.090;5.244;2023-08-31T04:14:58;100807.0;;;18.87;60.48
61676;BME280;47574;52.090;5.244;2023-08-31T04:16:34;100808.0;;;18.87;60.97
61676;BME280;47574;52.090;5.244;2023-08-31T04:19:47;100806.0;;;18.84;60.88
61676;BME280;47574;52.090;5.244;2023-08-31T04:21:23;100810.0;;;18.91;61.11
61676;BME280;47574;52.090;5.244;2023-08-31T04:22:59;100807.0;;;18.86;61.22
61676;BME280;47574;52.090;5.244;2023-08-31T04:26:12;100805.0;;;18.8;61.39
61676;BME280;47574;52.090;5.244;2023-08-31T04:27:48;100808.0;;;18.68;61.48
61676;BME280;47574;52.090;5.244;2023-08-31T04:29:25;100802.0;;;18.77;61.59
61676;BME280;47574;52.090;5.244;2023-08-31T04:32:41;100805.0;;;18.77;62.08
61676;BME280;47574;52.090;5.244;2023-08-31T04:34:17;100805.0;;;18.78;61.82
61676;BME280;47574;52.090;5.244;2023-08-31T04:35:53;100805.0;;;18.84;61.82
61676;BME280;47574;52.090;5.244;2023-08-31T04:37:29;100808.0;;;18.91;61.45
61676;BME280;47574;52.090;5.244;2023-08-31T04:40:41;100820.0;;;18.84;61.93
61676;BME280;47574;52.090;5.244;2023-08-31T04:42:17;100821.0;;;18.97;61.49
61676;BME280;47574;52.090;5.244;2023-08-31T04:43:53;100828.0;;;18.89;61.57
61676;BME280;47574;52.090;5.244;2023-08-31T04:47:06;100836.0;;;18.96;61.37
61676;BME280;47574;52.090;5.244;2023-08-31T04:48:42;100841.0;;;18.87;61.77
61676;BME280;47574;52.090;5.244;2023-08-31T04:50:18;100855.0;;;18.61;62.17
61676;BME280;47574;52.090;5.244;2023-08-31T04:53:32;100851.0;;;18.96;61.62
61676;BME280;47574;52.090;5.244;2023-08-31T04:55:09;100847.0;;;18.95;62.53
61676;BME280;47574;52.090;5.244;2023-08-31T04:56:44;100849.0;;;18.63;62.61
61676;BME280;47574;52.090;5.244;2023-08-31T04:58:21;100850.0;;;18.78;62.49
61676;BME280;47574;52.090;5.244;2023-08-31T05:01:33;100847.0;;;18.55;62.89
61676;BME280;47574;52.090;5.244;2023-08-31T05:03:09;100848.0;;;18.45;63.04
61676;BME280;47574;52.090;5.244;2023-08-31T05:04:45;100841.0;;;18.56;62.36
61676;BME280;47574;52.090;5.244;2023-08-31T05:07:57;100843.0;;;18.22;62.89
61676;BME280;47574;52.090;5.244;2023-08-31T05:09:34;100844.0;;;18.57;62.43
61676;BME280;47574;52.090;5.244;2023-08-31T05:11:10;100843.0;;;18.34;62.73
61676;BME280;47574;52.090;5.244;2023-08-31T05:14:23;100842.0;;;18.52;62.54
61676;BME280;47574;52.090;5.244;2023-08-31T05:15:59;100845.0;;;18.55;62.23
61676;BME280;47574;52.090;5.244;2023-08-31T05:17:35;100846.0;;;18.25;62.57
61676;BME280;47574;52.090;5.244;2023-08-31T05:19:11;100848.0;;;18.36;62.64
61676;BME280;47574;52.090;5.244;2023-08-31T05:22:23;100855.0;;;18.36;62.46
61676;BME280;47574;52.090;5.244;2023-08-31T05:24:00;100853.0;;;18.56;62.4
61676;BME280;47574;52.090;5.244;2023-08-31T05:25:41;100855.0;;;18.61;61.84
61676;BME280;47574;52.090;5.244;2023-08-31T05:28:54;100858.0;;;18.48;62.0
61676;BME280;47574;52.090;5.244;2023-08-31T05:30:31;100859.0;;;18.29;62.66
61676;BME280;47574;52.090;5.244;2023-08-31T05:32:07;100857.0;;;18.29;62.67
61676;BME280;47574;52.090;5.244;2023-08-31T05:35:19;100859.0;;;18.68;62.14
61676;BME280;47574;52.090;5.244;2023-08-31T05:36:55;100861.0;;;18.71;62.2
61676;BME280;47574;52.090;5.244;2023-08-31T05:38:32;100861.0;;;18.61;62.3
61676;BME280;47574;52.090;5.244;2023-08-31T05:40:09;100861.0;;;18.68;62.2
61676;BME280;47574;52.090;5.244;2023-08-31T05:43:22;100858.0;;;18.5;62.51
61676;BME280;47574;52.090;5.244;2023-08-31T05:44:58;100855.0;;;18.77;62.36
61676;BME280;47574;52.090;5.244;2023-08-31T05:46:34;100858.0;;;18.87;62.48
61676;BME280;47574;52.090;5.244;2023-08-31T05:49:46;100868.0;;;18.86;61.97
61676;BME280;47574;52.090;5.244;2023-08-31T05:51:22;100894.0;;;18.72;62.34
61676;BME280;47574;52.090;5.244;2023-08-31T05:52:59;100901.0;;;18.82;62.5
61676;BME280;47574;52.090;5.244;2023-08-31T05:56:11;100892.0;;;18.91;62.63
61676;BME280;47574;52.090;5.244;2023-08-31T05:57:47;100895.0;;;18.95;62.93
61676;BME280;47574;52.090;5.244;2023-08-31T05:59:23;100895.0;;;19.0;63.04
61676;BME280;47574;52.090;5.244;2023-08-31T06:02:35;100897.0;;;18.97;62.82
61676;BME280;47574;52.090;5.244;2023-08-31T06:04:11;100905.0;;;18.86;62.99
61676;BME280;47574;52.090;5.244;2023-08-31T06:05:47;100906.0;;;18.91;62.95
61676;BME280;47574;52.090;5.244;2023-08-31T06:07:23;100910.0;;;18.75;63.12
61676;BME280;47574;52.090;5.244;2023-08-31T06:10:36;100911.0;;;18.93;62.9
61676;BME280;47574;52.090;5.244;2023-08-31T06:12:12;100917.0;;;18.91;62.88
61676;BME280;47574;52.090;5.244;2023-08-31T06:13:48;100910.0;;;19.11;62.5
61676;BME280;47574;52.090;5.244;2023-08-31T06:17:01;100905.0;;;19.0;62.35
61676;BME280;47574;52.090;5.244;2023-08-31T06:18:37;100911.0;;;18.97;62.49
61676;BME280;47574;52.090;5.244;2023-08-31T06:20:13;100920.0;;;19.0;61.77
61676;BME280;47574;52.090;5.244;2023-08-31T06:23:26;100922.0;;;19.09;61.35
61676;BME280;47574;52.090;5.244;2023-08-31T06:25:02;100915.0;;;19.0;61.91
61676;BME280;47574;52.090;5.244;2023-08-31T06:26:39;100916.0;;;18.93;61.68
61676;BME280;47574;52.090;5.244;2023-08-31T06:28:15;100924.0;;;18.77;62.26
61676;BME280;47574;52.090;5.244;2023-08-31T06:31:27;100915.0;;;18.93;62.08
61676;BME280;47574;52.090;5.244;2023-08-31T06:33:04;100923.0;;;18.93;61.85
61676;BME280;47574;52.090;5.244;2023-08-31T06:34:40;100925.0;;;18.77;62.13
61676;BME280;47574;52.090;5.244;2023-08-31T06:37:53;100928.0;;;19.0;62.26
61676;BME280;47574;52.090;5.244;2023-08-31T06:39:29;100924.0;;;19.0;61.83
61676;BME280;47574;52.090;5.244;2023-08-31T06:41:05;100910.0;;;19.13;61.96
61676;BME280;47574;52.090;5.244;2023-08-31T06:44:17;100906.0;;;19.27;62.2
61676;BME280;47574;52.090;5.244;2023-08-31T06:45:53;100911.0;;;19.28;62.08
61676;BME280;47574;52.090;5.244;2023-08-31T06:47:29;100924.0;;;18.96;62.45
61676;BME280;47574;52.090;5.244;2023-08-31T06:50:41;100920.0;;;18.91;63.04
61676;BME280;47574;52.090;5.244;2023-08-31T06:52:18;100924.0;;;19.0;62.86
61676;BME280;47574;52.090;5.244;2023-08-31T06:53:54;100932.0;;;19.0;62.76
61676;BME280;47574;52.090;5.244;2023-08-31T06:55:30;100935.0;;;19.12;62.41
61676;BME280;47574;52.090;5.244;2023-08-31T06:58:43;100928.0;;;19.09;62.98
61676;BME280;47574;52.090;5.244;2023-08-31T07:00:19;100927.0;;;19.25;62.91
61676;BME280;47574;52.090;5.244;2023-08-31T07:01:55;100926.0;;;19.23;62.42
61676;BME280;47574;52.090;5.244;2023-08-31T07:05:09;100931.0;;;19.27;62.39
61676;BME280;47574;52.090;5.244;2023-08-31T07:08:23;100947.0;;;19.18;62.37
61676;BME280;47574;52.090;5.244;2023-08-31T07:11:35;100956.0;;;19.18;62.4
61676;BME280;47574;52.090;5.244;2023-08-31T07:13:11;100953.0;;;19.37;62.05
61676;BME280;47574;52.090;5.244;2023-08-31T07:14:47;100950.0;;;19.3;62.57
61676;BME280;47574;52.090;5.244;2023-08-31T07:16:23;100946.0;;;19.38;62.17
61676;BME280;47574;52.090;5.244;2023-08-31T07:19:36;100946.0;;;19.25;62.25
61676;BME280;47574;52.090;5.244;2023-08-31T07:21:12;100950.0;;;19.05;62.22
61676;BME280;47574;52.090;5.244;2023-08-31T07:22:49;100953.0;;;19.25;62.18
61676;BME280;47574;52.090;5.244;2023-08-31T07:26:01;100952.0;;;19.36;62.21
61676;BME280;47574;52.090;5.244;2023-08-31T07:27:37;100951.0;;;19.41;62.22
61676;BME280;47574;52.090;5.244;2023-08-31T07:29:13;100956.0;;;19.48;62.16
61676;BME280;47574;52.090;5.244;2023-08-31T07:32:25;100956.0;;;19.38;62.48
61676;BME280;47574;52.090;5.244;2023-08-31T07:34:01;100955.0;;;19.5;62.0
61676;BME280;47574;52.090;5.244;2023-08-31T07:35:37;100956.0;;;19.45;62.2
61676;BME280;47574;52.090;5.244;2023-08-31T07:38:49;100957.0;;;19.41;62.82
61676;BME280;47574;52.090;5.244;2023-08-31T07:40:26;100960.0;;;19.5;62.81
61676;BME280;47574;52.090;5.244;2023-08-31T07:42:02;100963.0;;;19.61;62.28
61676;BME280;47574;52.090;5.244;2023-08-31T07:43:38;100964.0;;;19.54;62.8
61676;BME280;47574;52.090;5.244;2023-08-31T07:46:50;100964.0;;;19.63;62.04
61676;BME280;47574;52.090;5.244;2023-08-31T07:48:26;100962.0;;;19.45;62.28
61676;BME280;47574;52.090;5.244;2023-08-31T07:50:02;100962.0;;;19.39;62.14
61676;BME280;47574;52.090;5.244;2023-08-31T07:53:14;100965.0;;;19.7;61.91
61676;BME280;47574;52.090;5.244;2023-08-31T07:54:50;100966.0;;;19.75;62.15
61676;BME280;47574;52.090;5.244;2023-08-31T07:56:26;100968.0;;;19.61;62.07
61676;BME280;47574;52.090;5.244;2023-08-31T07:59:38;100966.0;;;19.59;62.23
61676;BME280;47574;52.090;5.244;2023-08-31T08:01:14;100971.0;;;19.72;61.67
61676;BME280;47574;52.090;5.244;2023-08-31T08:02:50;100972.0;;;19.73;61.71
61676;BME280;47574;52.090;5.244;2023-08-31T08:06:02;100980.0;;;19.77;62.1
61676;BME280;47574;52.090;5.244;2023-08-31T08:07:39;100978.0;;;19.97;62.08
61676;BME280;47574;52.090;5.244;2023-08-31T08:09:15;100980.0;;;19.75;62.87
61676;BME280;47574;52.090;5.244;2023-08-31T08:10:52;100976.0;;;20.06;62.65
61676;BME280;47574;52.090;5.244;2023-08-31T08:14:13;100982.0;;;19.95;62.67
61676;BME280;47574;52.090;5.244;2023-08-31T08:15:49;100981.0;;;19.56;63.48
61676;BME280;47574;52.090;5.244;2023-08-31T08:17:25;100980.0;;;19.8;62.83
61676;BME280;47574;52.090;5.244;2023-08-31T08:20:38;100982.0;;;20.0;62.57
61676;BME280;47574;52.090;5.244;2023-08-31T08:22:13;100981.0;;;20.07;63.01
61676;BME280;47574;52.090;5.244;2023-08-31T08:23:50;100978.0;;;20.3;61.9
61676;BME280;47574;52.090;5.244;2023-08-31T08:25:26;100983.0;;;20.11;62.95
61676;BME280;47574;52.090;5.244;2023-08-31T08:28:38;100981.0;;;20.3;62.24
61676;BME280;47574;52.090;5.244;2023-08-31T08:30:14;100975.0;;;20.13;62.32
61676;BME280;47574;52.090;5.244;2023-08-31T08:31:50;100977.0;;;20.16;61.35
61676;BME280;47574;52.090;5.244;2023-08-31T08:35:03;100982.0;;;20.37;61.26
61676;BME280;47574;52.090;5.244;2023-08-31T08:36:40;100986.0;;;20.05;60.18
61676;BME280;47574;52.090;5.244;2023-08-31T08:38:16;100989.0;;;20.3;60.3
61676;BME280;47574;52.090;5.244;2023-08-31T08:41:29;100992.0;;;20.22;59.8
61676;BME280;47574;52.090;5.244;2023-08-31T08:43:07;101001.0;;;20.62;59.46
61676;BME280;47574;52.090;5.244;2023-08-31T08:44:44;101006.0;;;20.69;59.53
61676;BME280;47574;52.090;5.244;2023-08-31T08:46:21;101007.0;;;20.92;58.42
61676;BME280;47574;52.090;5.244;2023-08-31T08:49:35;101011.0;;;21.01;58.53
61676;BME280;47574;52.090;5.244;2023-08-31T08:51:12;101005.0;;;21.3;57.38
61676;BME280;47574;52.090;5.244;2023-08-31T08:52:50;101002.0;;;21.23;58.49
61676;BME280;47574;52.090;5.244;2023-08-31T08:56:03;101003.0;;;21.14;58.18
61676;BME280;47574;52.090;5.244;2023-08-31T08:57:40;101005.0;;;21.24;58.07
61676;BME280;47574;52.090;5.244;2023-08-31T08:59:16;101005.0;;;20.99;58.0
61676;BME280;47574;52.090;5.244;2023-08-31T09:02:30;101005.0;;;21.23;58.09
61676;BME280;47574;52.090;5.244;2023-08-31T09:04:06;100997.0;;;21.49;57.89
61676;BME280;47574;52.090;5.244;2023-08-31T09:05:44;100995.0;;;21.45;55.91
61676;BME280;47574;52.090;5.244;2023-08-31T09:07:21;100997.0;;;21.41;55.81
61676;BME280;47574;52.090;5.244;2023-08-31T09:10:34;100993.0;;;21.73;55.92
61676;BME280;47574;52.090;5.244;2023-08-31T09:12:11;100993.0;;;21.7;56.61
61676;BME280;47574;52.090;5.244;2023-08-31T09:13:47;100999.0;;;21.7;56.03
61676;BME280;47574;52.090;5.244;2023-08-31T09:17:00;101001.0;;;21.36;56.4
61676;BME280;47574;52.090;5.244;2023-08-31T09:18:37;101002.0;;;21.6;55.84
61676;BME280;47574;52.090;5.244;2023-08-31T09:20:13;100995.0;;;21.72;55.86
61676;BME280;47574;52.090;5.244;2023-08-31T09:23:28;101009.0;;;21.55;55.48
61676;BME280;47574;52.090;5.244;2023-08-31T09:25:05;101011.0;;;21.56;56.55
61676;BME280;47574;52.090;5.244;2023-08-31T09:26:43;101012.0;;;21.55;57.57
61676;BME280;47574;52.090;5.244;2023-08-31T09:28:22;101008.0;;;21.69;56.53
61676;BME280;47574;52.090;5.244;2023-08-31T09:31:34;101011.0;;;21.38;56.08
61676;BME280;47574;52.090;5.244;2023-08-31T09:33:14;101007.0;;;21.3;55.45
61676;BME280;47574;52.090;5.244;2023-08-31T09:34:52;101009.0;;;21.37;55.74
61676;BME280;47574;52.090;5.244;2023-08-31T09:38:07;101007.0;;;21.64;55.37
61676;BME280;47574;52.090;5.244;2023-08-31T09:39:44;101008.0;;;21.69;55.37
61676;BME280;47574;52.090;5.244;2023-08-31T09:41:20;101007.0;;;21.79;55.89
61676;BME280;47574;52.090;5.244;2023-08-31T09:42:56;101012.0;;;21.99;55.78
61676;BME280;47574;52.090;5.244;2023-08-31T09:46:09;101010.0;;;21.67;54.48
61676;BME280;47574;52.090;5.244;2023-08-31T09:47:45;101008.0;;;21.97;54.39
61676;BME280;47574;52.090;5.244;2023-08-31T09:49:21;101007.0;;;22.02;54.35
61676;BME280;47574;52.090;5.244;2023-08-31T09:52:40;101008.0;;;22.29;52.71
61676;BME280;47574;52.090;5.244;2023-08-31T09:54:17;101005.0;;;22.11;51.41
61676;BME280;47574;52.090;5.244;2023-08-31T09:55:56;101003.0;;;22.18;51.33
61676;BME280;47574;52.090;5.244;2023-08-31T09:57:33;101011.0;;;22.16;49.94
61676;BME280;47574;52.090;5.244;2023-08-31T10:00:49;101006.0;;;21.91;49.56
61676;BME280;47574;52.090;5.244;2023-08-31T10:02:28;101014.0;;;22.17;49.05
61676;BME280;47574;52.090;5.244;2023-08-31T10:04:06;101017.0;;;22.12;49.05
61676;BME280;47574;52.090;5.244;2023-08-31T10:07:21;101011.0;;;21.93;48.32
61676;BME280;47574;52.090;5.244;2023-08-31T10:08:57;101016.0;;;22.35;47.95
61676;BME280;47574;52.090;5.244;2023-08-31T10:10:34;101019.0;;;22.39;47.94
61676;BME280;47574;52.090;5.244;2023-08-31T10:12:11;101018.0;;;22.15;46.64
61676;BME280;47574;52.090;5.244;2023-08-31T10:15:31;101016.0;;;22.26;47.79
61676;BME280;47574;52.090;5.244;2023-08-31T10:17:07;101021.0;;;22.45;47.37
61676;BME280;47574;52.090;5.244;2023-08-31T10:18:44;101015.0;;;22.23;46.58
61676;BME280;47574;52.090;5.244;2023-08-31T10:21:57;101020.0;;;22.27;46.51
61676;BME280;47574;52.090;5.244;2023-08-31T10:23:33;101012.0;;;22.45;44.91
61676;BME280;47574;52.090;5.244;2023-08-31T10:25:09;101015.0;;;22.33;45.91
61676;BME280;47574;52.090;5.244;2023-08-31T10:26:46;101021.0;;;22.4;44.08
61676;BME280;47574;52.090;5.244;2023-08-31T10:30:13;101010.0;;;22.52;43.69
61676;BME280;47574;52.090;5.244;2023-08-31T10:31:49;101016.0;;;22.48;44.27
61676;BME280;47574;52.090;5.244;2023-08-31T10:33:25;101016.0;;;22.32;43.66
61676;BME280;47574;52.090;5.244;2023-08-31T10:36:45;101018.0;;;22.63;43.09
61676;BME280;47574;52.090;5.244;2023-08-31T10:38:25;101019.0;;;23.05;42.92
61676;BME280;47574;52.090;5.244;2023-08-31T10:40:09;101019.0;;;22.92;41.3
61676;BME280;47574;52.090;5.244;2023-08-31T10:41:52;101017.0;;;22.83;42.7
61676;BME280;47574;52.090;5.244;2023-08-31T10:43:43;101014.0;;;23.09;42.63
61676;BME280;47574;52.090;5.244;2023-08-31T10:47:00;101028.0;;;23.14;42.45
61676;BME280;47574;52.090;5.244;2023-08-31T10:48:49;101018.0;;;22.88;41.79
61676;BME280;47574;52.090;5.244;2023-08-31T10:50:25;101018.0;;;22.88;40.89
61676;BME280;47574;52.090;5.244;2023-08-31T10:52:15;101019.0;;;22.87;41.22
61676;BME280;47574;52.090;5.244;2023-08-31T10:55:50;101020.0;;;22.99;40.14
61676;BME280;47574;52.090;5.244;2023-08-31T10:57:29;101030.0;;;22.91;40.89
61676;BME280;47574;52.090;5.244;2023-08-31T10:59:07;101025.0;;;23.01;40.24
61676;BME280;47574;52.090;5.244;2023-08-31T11:00:47;101014.0;;;23.03;39.42
61676;BME280;47574;52.090;5.244;2023-08-31T11:02:30;101014.0;;;23.4;39.53
61676;BME280;47574;52.090;5.244;2023-08-31T11:05:53;101012.0;;;23.57;38.72
61676;BME280;47574;52.090;5.244;2023-08-31T11:07:30;101021.0;;;23.46;38.11
61676;BME280;47574;52.090;5.244;2023-08-31T11:09:10;101008.0;;;23.81;37.42
61676;BME280;47574;52.090;5.244;2023-08-31T11:10:54;101012.0;;;23.73;37.92